createdAt,value
2022-08-17T00:01:32.045Z,18.20
2022-08-17T00:04:19.748Z,18.20
2022-08-17T00:06:49.235Z,18.20
2022-08-17T00:09:18.691Z,18.10
2022-08-17T00:12:35.560Z,18.00
2022-08-17T00:14:35.000Z,18.00
2022-08-17T00:17:03.816Z,17.90
2022-08-17T00:19:32.599Z,17.90
2022-08-17T00:22:33.912Z,18.00
2022-08-17T00:24:50.220Z,18.00
2022-08-17T00:27:18.108Z,18.10
2022-08-17T00:29:45.814Z,18.00
2022-08-17T00:33:11.985Z,17.80
2022-08-17T00:35:05.129Z,17.70
2022-08-17T00:37:32.359Z,17.60
2022-08-17T00:39:59.716Z,17.60
2022-08-17T00:42:30.927Z,17.70
2022-08-17T00:44:58.953Z,17.80
2022-08-17T00:47:26.432Z,17.60
2022-08-17T00:49:54.072Z,17.60
2022-08-17T00:52:23.050Z,17.50
2022-08-17T00:54:52.307Z,17.50
2022-08-17T00:57:35.963Z,17.50
2022-08-17T01:00:10.909Z,17.70
2022-08-17T01:02:43.182Z,17.70
2022-08-17T01:05:15.356Z,17.70
2022-08-17T01:07:42.683Z,17.60
2022-08-17T01:10:59.042Z,17.40
2022-08-17T01:12:59.984Z,17.30
2022-08-17T01:15:27.280Z,17.30
2022-08-17T01:17:54.591Z,17.40
2022-08-17T01:20:21.855Z,17.40
2022-08-17T01:22:49.232Z,17.30
2022-08-17T01:25:16.537Z,17.20
2022-08-17T01:27:43.832Z,17.10
2022-08-17T01:30:57.436Z,17.20
2022-08-17T01:32:59.639Z,17.20
2022-08-17T01:35:26.932Z,17.10
2022-08-17T01:37:54.160Z,17.10
2022-08-17T01:40:32.878Z,17.00
2022-08-17T01:43:10.437Z,17.10
2022-08-17T01:45:49.542Z,17.20
2022-08-17T01:48:32.637Z,17.30
2022-08-17T01:50:59.976Z,17.30
2022-08-17T01:53:32.563Z,17.30
2022-08-17T01:56:08.627Z,17.10
2022-08-17T01:58:36.091Z,17.00
2022-08-17T02:01:04.010Z,17.10
2022-08-17T02:03:31.864Z,17.20
2022-08-17T02:05:59.242Z,17.20
2022-08-17T02:08:38.104Z,17.00
2022-08-17T02:11:11.504Z,16.80
2022-08-17T02:13:39.154Z,16.70
2022-08-17T02:16:06.755Z,16.70
2022-08-17T02:18:34.006Z,16.70
2022-08-17T02:21:01.202Z,16.70
2022-08-17T02:23:30.410Z,16.70
2022-08-17T02:25:58.773Z,16.80
2022-08-17T02:28:26.306Z,16.90
2022-08-17T02:31:01.301Z,17.00
2022-08-17T02:33:43.266Z,17.00
2022-08-17T02:36:12.182Z,17.10
2022-08-17T02:38:39.767Z,17.00
2022-08-17T02:41:07.349Z,16.90
2022-08-17T02:43:34.860Z,16.80
2022-08-17T02:46:02.098Z,16.70
2022-08-17T02:48:31.037Z,16.70
2022-08-17T02:51:00.181Z,16.70
2022-08-17T02:53:27.748Z,16.80
2022-08-17T02:56:03.900Z,16.80
2022-08-17T02:58:35.798Z,16.90
2022-08-17T03:01:07.350Z,16.80
2022-08-17T03:03:34.979Z,16.80
2022-08-17T03:06:02.360Z,16.80
2022-08-17T03:08:29.887Z,16.60
2022-08-17T03:10:57.134Z,16.60
2022-08-17T03:13:24.425Z,16.60
2022-08-17T03:15:51.663Z,16.70
2022-08-17T03:18:25.581Z,16.50
2022-08-17T03:20:55.021Z,16.50
2022-08-17T03:23:23.831Z,16.50
2022-08-17T03:25:52.765Z,16.60
2022-08-17T03:28:21.124Z,16.60
2022-08-17T03:30:48.677Z,16.50
2022-08-17T03:33:16.825Z,16.50
2022-08-17T03:35:44.128Z,16.60
2022-08-17T03:38:11.914Z,16.50
2022-08-17T03:40:56.512Z,16.50
2022-08-17T03:43:28.528Z,16.50
2022-08-17T03:46:28.726Z,16.50
2022-08-17T03:49:22.323Z,16.60
2022-08-17T03:52:08.280Z,16.70
2022-08-17T03:54:53.940Z,16.70
2022-08-17T03:57:21.172Z,16.50
2022-08-17T03:59:48.416Z,16.30
2022-08-17T04:02:28.259Z,16.20
2022-08-17T04:04:55.619Z,16.20
2022-08-17T04:07:24.858Z,16.30
2022-08-17T04:09:52.128Z,16.30
2022-08-17T04:12:21.716Z,16.30
2022-08-17T04:14:52.610Z,16.20
2022-08-17T04:17:26.832Z,16.20
2022-08-17T04:19:54.288Z,16.10
2022-08-17T04:22:30.462Z,16.20
2022-08-17T04:25:07.202Z,16.20
2022-08-17T04:27:34.567Z,16.40
2022-08-17T04:30:02.207Z,16.40
2022-08-17T04:33:03.419Z,16.40
2022-08-17T04:35:21.877Z,16.40
2022-08-17T04:37:49.335Z,16.40
2022-08-17T04:40:35.685Z,16.40
2022-08-17T04:43:10.837Z,16.40
2022-08-17T04:45:55.013Z,16.50
2022-08-17T04:48:36.690Z,16.60
2022-08-17T04:51:32.043Z,16.70
2022-08-17T04:54:01.722Z,16.80
2022-08-17T04:56:29.255Z,16.90
2022-08-17T04:58:58.770Z,17.00
2022-08-17T05:01:28.113Z,17.10
2022-08-17T05:03:56.794Z,17.20
2022-08-17T05:06:24.155Z,17.30
2022-08-17T05:08:51.463Z,17.40
2022-08-17T05:11:18.802Z,17.40
2022-08-17T05:13:46.139Z,17.50
2022-08-17T05:16:13.374Z,17.50
2022-08-17T05:18:40.689Z,17.60
2022-08-17T05:21:07.986Z,17.60
2022-08-17T05:23:42.765Z,17.80
2022-08-17T05:26:25.509Z,17.90
2022-08-17T05:28:57.126Z,18.10
2022-08-17T05:31:27.634Z,18.10
2022-08-17T05:33:54.998Z,18.10
2022-08-17T05:36:42.112Z,18.30
2022-08-17T05:39:15.891Z,18.30
2022-08-17T05:41:45.410Z,18.40
2022-08-17T05:44:12.536Z,18.50
2022-08-17T05:46:40.947Z,18.50
2022-08-17T05:49:08.427Z,18.50
2022-08-17T05:52:06.355Z,18.60
2022-08-17T05:54:47.394Z,18.70
2022-08-17T05:57:51.994Z,18.80
2022-08-17T06:00:31.274Z,19.00
2022-08-17T06:03:04.592Z,19.20
2022-08-17T06:05:43.631Z,19.30
2022-08-17T06:08:48.303Z,19.50
2022-08-17T06:12:00.302Z,19.60
2022-08-17T06:14:43.827Z,19.80
2022-08-17T06:17:13.730Z,19.90
2022-08-17T06:19:43.964Z,20.00
2022-08-17T06:22:12.964Z,20.10
2022-08-17T06:24:50.095Z,20.20
2022-08-17T06:27:35.374Z,20.40
2022-08-17T06:30:09.245Z,20.60
2022-08-17T06:32:43.963Z,20.70
2022-08-17T06:35:12.018Z,20.60
2022-08-17T06:38:07.076Z,20.70
2022-08-17T06:40:45.401Z,20.80
2022-08-17T06:43:39.612Z,21.00
2022-08-17T06:46:11.531Z,21.00
2022-08-17T06:48:46.787Z,21.00
2022-08-17T06:51:40.961Z,21.20
2022-08-17T06:54:10.764Z,21.40
2022-08-17T06:57:11.223Z,21.40
2022-08-17T06:59:55.610Z,21.40
2022-08-17T07:02:51.989Z,21.50
2022-08-17T07:05:22.631Z,21.50
2022-08-17T07:08:11.613Z,21.60
2022-08-17T07:10:47.359Z,21.70
2022-08-17T07:13:25.591Z,21.80
2022-08-17T07:15:57.098Z,21.90
2022-08-17T07:18:28.735Z,21.90
2022-08-17T07:20:59.896Z,22.00
2022-08-17T07:23:38.578Z,22.20
2022-08-17T07:26:06.764Z,22.30
2022-08-17T07:28:34.290Z,22.50
2022-08-17T07:31:02.122Z,22.70
2022-08-17T07:33:30.559Z,22.70
2022-08-17T07:35:58.072Z,22.70
2022-08-17T07:38:29.865Z,22.80
2022-08-17T07:40:57.889Z,22.90
2022-08-17T07:43:29.418Z,23.00
2022-08-17T07:46:33.228Z,23.00
2022-08-17T07:49:03.536Z,23.20
2022-08-17T07:51:36.399Z,23.20
2022-08-17T07:54:14.422Z,23.10
2022-08-17T07:56:48.133Z,23.20
2022-08-17T07:59:23.707Z,23.20
2022-08-17T08:02:08.001Z,23.30
2022-08-17T08:04:59.605Z,23.30
2022-08-17T08:07:35.890Z,23.40
2022-08-17T08:10:12.166Z,23.60
2022-08-17T08:12:42.753Z,23.80
2022-08-17T08:15:23.240Z,24.00
2022-08-17T08:17:53.471Z,24.00
2022-08-17T08:20:51.127Z,24.00
2022-08-17T08:23:42.300Z,24.20
2022-08-17T08:26:30.915Z,24.40
2022-08-17T08:29:35.677Z,24.50
2022-08-17T08:32:20.884Z,24.50
2022-08-17T08:35:06.957Z,24.60
2022-08-17T08:37:49.945Z,24.70
2022-08-17T08:40:35.372Z,24.80
2022-08-17T08:43:14.485Z,24.90
2022-08-17T08:46:02.806Z,24.90
2022-08-17T08:48:56.225Z,25.20
2022-08-17T08:51:27.579Z,25.50
2022-08-17T08:54:01.482Z,25.80
2022-08-17T08:57:22.243Z,26.00
2022-08-17T08:59:58.052Z,25.90
2022-08-17T09:02:43.333Z,25.90
2022-08-17T09:05:30.468Z,25.80
2022-08-17T09:08:18.532Z,25.90
2022-08-17T09:11:17.753Z,26.00
2022-08-17T09:14:05.229Z,26.30
2022-08-17T09:17:02.470Z,26.50
2022-08-17T09:19:39.271Z,26.60
2022-08-17T09:22:12.049Z,26.40
2022-08-17T09:24:43.521Z,26.40
2022-08-17T09:27:20.693Z,26.60
2022-08-17T09:29:49.946Z,26.80
2022-08-17T09:32:39.887Z,27.00
2022-08-17T09:35:13.162Z,26.90
2022-08-17T09:37:53.279Z,27.10
2022-08-17T09:40:24.388Z,27.40
2022-08-17T09:42:59.536Z,27.30
2022-08-17T09:45:39.179Z,27.10
2022-08-17T09:48:20.098Z,27.40
2022-08-17T09:51:04.588Z,27.60
2022-08-17T09:53:37.164Z,27.80
2022-08-17T09:56:24.096Z,27.80
2022-08-17T09:59:03.534Z,28.00
2022-08-17T10:01:38.103Z,28.20
2022-08-17T10:04:29.356Z,28.00
2022-08-17T10:07:07.321Z,27.90
2022-08-17T10:09:46.472Z,28.00
2022-08-17T10:12:20.055Z,27.90
2022-08-17T10:14:53.307Z,27.90
2022-08-17T10:17:57.559Z,28.00
2022-08-17T10:20:49.440Z,27.80
2022-08-17T10:23:40.307Z,27.90
2022-08-17T10:26:27.030Z,28.00
2022-08-17T10:29:20.809Z,28.30
2022-08-17T10:31:49.041Z,28.50
2022-08-17T10:34:44.212Z,28.70
2022-08-17T10:37:24.695Z,28.70
2022-08-17T10:40:15.859Z,28.50
2022-08-17T10:42:50.174Z,28.50
2022-08-17T10:45:21.523Z,28.50
2022-08-17T10:48:05.270Z,28.60
2022-08-17T10:50:49.358Z,28.50
2022-08-17T10:53:31.898Z,28.60
2022-08-17T10:56:38.360Z,28.70
2022-08-17T10:59:05.631Z,28.90
2022-08-17T11:01:32.995Z,29.20
2022-08-17T11:04:11.697Z,29.10
2022-08-17T11:06:38.903Z,28.90
2022-08-17T11:09:31.030Z,29.10
2022-08-17T11:12:37.640Z,29.10
2022-08-17T11:15:42.424Z,29.40
2022-08-17T11:18:24.104Z,29.50
2022-08-17T11:20:57.138Z,29.60
2022-08-17T11:23:34.078Z,29.70
2022-08-17T11:26:04.026Z,29.50
2022-08-17T11:28:35.184Z,29.20
2022-08-17T11:31:05.419Z,29.20
2022-08-17T11:33:36.794Z,29.30
2022-08-17T11:36:14.526Z,29.40
2022-08-17T11:39:05.069Z,29.50
2022-08-17T11:42:05.792Z,29.70
2022-08-17T11:44:37.632Z,29.80
2022-08-17T11:47:33.870Z,29.80
2022-08-17T11:50:41.197Z,29.80
2022-08-17T11:53:08.880Z,30.00
2022-08-17T11:55:44.326Z,30.10
2022-08-17T11:58:30.102Z,30.40
2022-08-17T12:01:01.543Z,30.50
2022-08-17T12:03:32.140Z,30.50
2022-08-17T12:06:30.877Z,30.40
2022-08-17T12:09:22.166Z,30.50
2022-08-17T12:12:11.123Z,30.40
2022-08-17T12:15:07.931Z,30.40
2022-08-17T12:17:39.217Z,30.60
2022-08-17T12:20:27.714Z,30.70
2022-08-17T12:23:12.471Z,30.80
2022-08-17T12:25:39.612Z,30.80
2022-08-17T12:28:26.784Z,31.00
2022-08-17T12:30:54.132Z,31.20
2022-08-17T12:33:28.032Z,31.20
2022-08-17T12:36:02.795Z,31.20
2022-08-17T12:38:34.605Z,31.20
2022-08-17T12:41:23.339Z,31.30
2022-08-17T12:44:04.272Z,31.20
2022-08-17T12:46:34.784Z,31.10
2022-08-17T12:49:31.769Z,30.90
2022-08-17T12:52:19.925Z,30.90
2022-08-17T12:54:59.621Z,30.90
2022-08-17T12:57:38.891Z,30.90
2022-08-17T13:00:22.017Z,31.10
2022-08-17T13:03:00.176Z,31.10
2022-08-17T13:05:36.791Z,31.00
2022-08-17T13:08:15.129Z,31.20
2022-08-17T13:10:42.383Z,31.40
2022-08-17T13:13:24.368Z,31.50
2022-08-17T13:15:56.972Z,31.60
2022-08-17T13:18:40.743Z,31.70
2022-08-17T13:21:22.242Z,31.80
2022-08-17T13:24:10.832Z,31.80
2022-08-17T13:27:01.406Z,31.50
2022-08-17T13:29:43.592Z,31.60
2022-08-17T13:32:13.772Z,31.40
2022-08-17T13:35:14.970Z,31.30
2022-08-17T13:38:01.259Z,31.20
2022-08-17T13:40:32.314Z,31.20
2022-08-17T13:42:59.570Z,31.30
2022-08-17T13:45:36.341Z,31.10
2022-08-17T13:48:06.413Z,31.10
2022-08-17T13:50:34.058Z,31.20
2022-08-17T13:53:01.265Z,31.20
2022-08-17T13:55:28.872Z,31.10
2022-08-17T13:58:07.227Z,31.10
2022-08-17T14:00:36.187Z,31.20
2022-08-17T14:03:04.205Z,31.40
2022-08-17T14:05:31.463Z,31.50
2022-08-17T14:08:02.087Z,31.50
2022-08-17T14:10:36.156Z,31.40
2022-08-17T14:13:03.562Z,31.40
2022-08-17T14:15:55.452Z,31.20
2022-08-17T14:18:30.559Z,31.30
2022-08-17T14:21:08.316Z,31.60
2022-08-17T14:23:36.617Z,31.60
2022-08-17T14:26:04.044Z,31.70
2022-08-17T14:28:32.072Z,31.90
2022-08-17T14:31:00.661Z,32.10
2022-08-17T14:33:28.744Z,32.40
2022-08-17T14:35:57.538Z,32.40
2022-08-17T14:38:24.848Z,32.40
2022-08-17T14:40:52.160Z,32.50
2022-08-17T14:43:20.834Z,32.60
2022-08-17T14:45:48.101Z,32.70
2022-08-17T14:48:15.851Z,32.50
2022-08-17T14:50:43.280Z,32.10
2022-08-17T14:53:11.608Z,32.00
2022-08-17T14:55:40.670Z,32.00
2022-08-17T14:58:09.001Z,32.00
2022-08-17T15:00:36.544Z,31.90
2022-08-17T15:03:03.990Z,31.90
2022-08-17T15:05:33.604Z,31.70
2022-08-17T15:08:01.302Z,31.60
2022-08-17T15:10:29.091Z,31.70
2022-08-17T15:12:56.394Z,31.50
2022-08-17T15:15:23.829Z,31.30
2022-08-17T15:17:51.499Z,31.20
2022-08-17T15:20:23.810Z,31.20
2022-08-17T15:22:54.842Z,31.20
2022-08-17T15:25:22.362Z,31.10
2022-08-17T15:27:49.718Z,31.10
2022-08-17T15:30:17.179Z,31.20
2022-08-17T15:32:50.591Z,31.40
2022-08-17T15:35:18.997Z,31.50
2022-08-17T15:37:55.592Z,31.70
2022-08-17T15:40:22.834Z,31.80
2022-08-17T15:42:51.013Z,31.80
2022-08-17T15:45:18.234Z,31.90
2022-08-17T15:47:46.579Z,31.80
2022-08-17T15:50:13.899Z,31.70
2022-08-17T15:52:43.010Z,31.50
2022-08-17T15:55:12.546Z,31.40
2022-08-17T15:57:40.101Z,31.30
2022-08-17T16:00:08.406Z,31.20
2022-08-17T16:03:44.586Z,31.10
2022-08-17T16:05:28.427Z,31.10
2022-08-17T16:07:59.687Z,31.20
2022-08-17T16:10:34.739Z,31.00
2022-08-17T16:13:03.537Z,30.90
2022-08-17T16:15:33.804Z,30.80
2022-08-17T16:18:01.062Z,30.70
2022-08-17T16:20:28.362Z,30.50
2022-08-17T16:22:55.751Z,30.40
2022-08-17T16:25:47.153Z,30.50
2022-08-17T16:28:15.821Z,30.50
2022-08-17T16:30:43.122Z,30.50
2022-08-17T16:33:11.551Z,30.40
2022-08-17T16:35:38.855Z,30.40
2022-08-17T16:38:07.011Z,30.30
2022-08-17T16:40:35.886Z,30.30
2022-08-17T16:43:04.292Z,30.30
2022-08-17T16:45:40.050Z,30.30
2022-08-17T16:48:07.817Z,30.20
2022-08-17T16:50:35.666Z,30.10
2022-08-17T16:53:06.531Z,30.10
2022-08-17T16:55:35.717Z,30.00
2022-08-17T16:58:04.354Z,29.90
2022-08-17T17:00:33.267Z,29.90
2022-08-17T17:03:19.918Z,29.90
2022-08-17T17:05:57.762Z,29.80
2022-08-17T17:08:30.288Z,29.80
2022-08-17T17:10:58.829Z,29.80
2022-08-17T17:13:43.690Z,29.70
2022-08-17T17:16:18.615Z,29.60
2022-08-17T17:18:58.099Z,29.50
2022-08-17T17:21:28.064Z,29.40
2022-08-17T17:23:57.522Z,29.40
2022-08-17T17:27:00.515Z,29.50
2022-08-17T17:29:47.446Z,29.40
2022-08-17T17:32:30.961Z,29.40
2022-08-17T17:35:07.858Z,29.40
2022-08-17T17:37:35.445Z,29.30
2022-08-17T17:40:12.546Z,29.30
2022-08-17T17:42:40.557Z,29.20
2022-08-17T17:45:25.864Z,29.20
2022-08-17T17:47:53.370Z,29.20
2022-08-17T17:50:23.418Z,29.20
2022-08-17T17:53:04.297Z,29.10
2022-08-17T17:55:43.084Z,29.00
2022-08-17T17:58:26.063Z,28.90
2022-08-17T18:01:08.408Z,28.90
2022-08-17T18:03:41.631Z,28.80
2022-08-17T18:06:15.028Z,28.70
2022-08-17T18:09:01.996Z,28.60
2022-08-17T18:11:42.240Z,28.60
2022-08-17T18:14:28.803Z,28.60
2022-08-17T18:16:57.253Z,28.50
2022-08-17T18:19:26.116Z,28.40
2022-08-17T18:21:56.437Z,28.30
2022-08-17T18:24:32.112Z,28.30
2022-08-17T18:27:00.446Z,28.10
2022-08-17T18:29:27.690Z,28.10
2022-08-17T18:32:31.150Z,28.00
2022-08-17T18:35:02.700Z,27.90
2022-08-17T18:37:31.541Z,27.80
2022-08-17T18:39:58.971Z,27.70
2022-08-17T18:42:28.240Z,27.60
2022-08-17T18:44:55.993Z,27.50
2022-08-17T18:47:24.994Z,27.50
2022-08-17T18:49:57.555Z,27.40
2022-08-17T18:52:27.656Z,27.30
2022-08-17T18:55:27.728Z,27.20
2022-08-17T18:58:14.651Z,27.10
2022-08-17T19:00:46.042Z,26.90
2022-08-17T19:03:16.365Z,26.70
2022-08-17T19:05:46.105Z,26.60
2022-08-17T19:08:31.147Z,26.60
2022-08-17T19:10:59.228Z,26.60
2022-08-17T19:13:37.648Z,26.50
2022-08-17T19:16:14.939Z,26.40
2022-08-17T19:18:57.927Z,26.40
2022-08-17T19:21:25.751Z,26.20
2022-08-17T19:24:19.128Z,26.00
2022-08-17T19:27:06.377Z,25.90
2022-08-17T19:29:50.021Z,25.90
2022-08-17T19:32:21.507Z,25.80
2022-08-17T19:34:49.150Z,25.80
2022-08-17T19:37:25.292Z,25.70
2022-08-17T19:39:59.837Z,25.60
2022-08-17T19:43:01.967Z,25.50
2022-08-17T19:46:05.875Z,25.50
2022-08-17T19:49:08.415Z,25.40
2022-08-17T19:51:40.975Z,25.40
2022-08-17T19:54:20.430Z,25.40
2022-08-17T19:57:06.041Z,25.30
2022-08-17T19:59:51.475Z,25.20
2022-08-17T20:02:37.086Z,25.20
2022-08-17T20:05:26.457Z,25.20
2022-08-17T20:08:03.117Z,25.20
2022-08-17T20:10:48.049Z,25.20
2022-08-17T20:13:44.566Z,25.20
2022-08-17T20:16:11.964Z,25.20
2022-08-17T20:19:02.853Z,25.20
2022-08-17T20:21:41.300Z,25.20
2022-08-17T20:24:20.147Z,25.20
2022-08-17T20:27:42.584Z,25.30
2022-08-17T20:30:23.157Z,25.20
2022-08-17T20:32:58.000Z,25.20
2022-08-17T20:35:33.022Z,25.20
2022-08-17T20:38:11.158Z,25.20
2022-08-17T20:40:54.633Z,25.20
2022-08-17T20:43:36.520Z,25.20
2022-08-17T20:46:09.199Z,25.20
2022-08-17T20:48:42.622Z,25.20
2022-08-17T20:52:00.545Z,25.20
2022-08-17T20:54:47.626Z,25.20
2022-08-17T20:57:33.311Z,25.20
2022-08-17T21:00:19.073Z,25.20
2022-08-17T21:02:49.462Z,25.20
2022-08-17T21:05:36.284Z,25.20
2022-08-17T21:08:14.925Z,25.20
2022-08-17T21:10:45.491Z,25.20
2022-08-17T21:13:13.504Z,25.20
2022-08-17T21:16:27.440Z,25.10
2022-08-17T21:18:54.628Z,25.10
2022-08-17T21:21:49.422Z,25.20
2022-08-17T21:24:50.644Z,25.10
2022-08-17T21:27:21.715Z,25.10
2022-08-17T21:30:30.290Z,25.10
2022-08-17T21:33:10.164Z,25.10
2022-08-17T21:35:53.245Z,25.20
2022-08-17T21:38:57.802Z,25.10
2022-08-17T21:41:34.982Z,25.10
2022-08-17T21:44:11.167Z,25.10
2022-08-17T21:46:42.800Z,25.10
2022-08-17T21:49:16.578Z,25.10
2022-08-17T21:51:49.918Z,25.00
2022-08-17T21:54:23.079Z,25.00
2022-08-17T21:56:50.313Z,25.00
2022-08-17T21:59:29.802Z,24.90
2022-08-17T22:02:08.819Z,24.90
2022-08-17T22:04:37.044Z,24.80
2022-08-17T22:07:07.032Z,24.60
2022-08-17T22:09:55.459Z,24.60
2022-08-17T22:12:24.204Z,24.40
2022-08-17T22:15:07.427Z,24.20
2022-08-17T22:17:36.409Z,23.90
2022-08-17T22:20:14.844Z,23.70
2022-08-17T22:23:06.815Z,23.50
2022-08-17T22:25:41.323Z,23.40
2022-08-17T22:28:10.128Z,23.10
2022-08-17T22:30:42.075Z,22.60
2022-08-17T22:33:29.493Z,22.20
2022-08-17T22:36:30.975Z,21.80
2022-08-17T22:39:00.012Z,21.60
2022-08-17T22:41:34.359Z,21.30
2022-08-17T22:44:24.297Z,21.00
2022-08-17T22:47:00.442Z,20.70
2022-08-17T22:49:32.979Z,20.70
2022-08-17T22:52:21.387Z,20.50
2022-08-17T22:55:27.802Z,20.40
2022-08-17T22:58:13.538Z,20.20
2022-08-17T23:00:43.646Z,20.10
2022-08-17T23:03:12.797Z,20.00
2022-08-17T23:05:42.926Z,19.90
2022-08-17T23:08:11.532Z,19.90
2022-08-17T23:10:41.319Z,19.90
2022-08-17T23:13:11.724Z,19.70
2022-08-17T23:15:41.756Z,19.60
2022-08-17T23:18:09.126Z,19.60
2022-08-17T23:20:37.460Z,19.50
2022-08-17T23:23:06.710Z,19.50
2022-08-17T23:25:34.712Z,19.50
2022-08-17T23:28:03.251Z,19.40
2022-08-17T23:30:31.480Z,19.40
2022-08-17T23:33:01.015Z,19.40
2022-08-17T23:35:39.868Z,19.40
2022-08-17T23:38:11.864Z,19.40
2022-08-17T23:40:39.904Z,19.40
2022-08-17T23:43:23.435Z,19.40
2022-08-17T23:45:56.100Z,19.30
2022-08-17T23:48:34.931Z,19.30
2022-08-17T23:51:12.775Z,19.30
2022-08-17T23:53:47.163Z,19.30
2022-08-17T23:56:14.663Z,19.20
2022-08-17T23:58:42.623Z,19.20
